Nordviolet — 9HA4103 — position and weather

sailwx.info

Track history (hours):
 
Tides and Currents Weather Stations Pressure Air Temp Water Temp Dewpoint Dewpoint Depression Visibility Wind Speed Wind Dir Waves Ship Positions

Nordviolet

Last reported at 2017-Nov-24 09:00 UTC. Time now 2017-Nov-24 09:20 UTC.
Position N 45°27' E 012°14'.

Length 170 m; draft 8 m.

Type: Ship (hazmat cat A). MMSI: 249094000.

Date/timePositionNaut miles runAvg speedWind from/ knotsBaromVisibWave heightAir tempDewpointWater temp
2017-Nov-24 09:00N 45°27' E 012°14'0 0.0
2017-Nov-24 08:30N 45°27' E 012°14'0 0.0
2017-Nov-24 08:00N 45°27' E 012°14'0 0.0
2017-Nov-24 07:27N 45°27' E 012°14'0 0.0
2017-Nov-24 06:57N 45°27' E 012°14'1 1.7
2017-Nov-24 06:30N 45°27' E 012°15'2 4.7
2017-Nov-24 06:00N 45°25' E 012°16'4 8.1
2017-Nov-24 05:30N 45°21' E 012°17'5 9.7
2017-Nov-24 05:01N 45°19' E 012°24'4 7.5
2017-Nov-24 04:31N 45°21' E 012°28'0 0.1
2017-Nov-24 04:00N 45°21' E 012°28'0 0.0
2017-Nov-24 03:30N 45°21' E 012°28'0 0.0
2017-Nov-24 03:00N 45°21' E 012°28'0 0.0
2017-Nov-24 02:30N 45°21' E 012°28'0 0.0
2017-Nov-24 02:00N 45°21' E 012°28'0 0.0
2017-Nov-24 01:30N 45°21' E 012°28'0 0.0
2017-Nov-24 01:00N 45°21' E 012°28'0 0.0
2017-Nov-24 00:30N 45°21' E 012°28'0 0.0
2017-Nov-24 00:00N 45°21' E 012°28'0 0.0
2017-Nov-23 23:30N 45°21' E 012°28'0 0.0
2017-Nov-23 23:00N 45°21' E 012°28'0 0.0
2017-Nov-23 22:30N 45°21' E 012°28'0 0.0
2017-Nov-23 22:00N 45°21' E 012°28'0 0.1
2017-Nov-23 21:30N 45°21' E 012°28'0 0.3
2017-Nov-23 21:00N 45°21' E 012°28'1 2.8
2017-Nov-23 20:30N 45°20' E 012°26'4 8.5
2017-Nov-23 20:00N 45°17' E 012°30'510.8
2017-Nov-23 19:30N 45°17' E 012°38'612.0
2017-Nov-23 19:00N 45°20' E 012°46'611.9
2017-Nov-23 18:30N 45°23' E 012°53'611.7
2017-Nov-23 18:00N 45°26' E 013°00'611.8
2017-Nov-23 17:30N 45°30' E 013°07'611.8
2017-Nov-23 17:00N 45°32' E 013°14'612.1
2017-Nov-23 16:30N 45°35' E 013°22'612.1
2017-Nov-23 16:00N 45°37' E 013°30'611.1
2017-Nov-23 15:30N 45°37' E 013°38'5 9.7
2017-Nov-23 15:00N 45°33' E 013°43'1 0.9
2017-Nov-23 14:21N 45°33' E 013°44'0 0.0
2017-Nov-23 13:57N 45°33' E 013°44'0 0.0
2017-Nov-23 13:23N 45°33' E 013°44'0 0.0
2017-Nov-23 12:59N 45°33' E 013°44'0 0.0
2017-Nov-23 12:23N 45°33' E 013°44'0 0.0
2017-Nov-23 11:59N 45°33' E 013°44'0 0.0
2017-Nov-23 11:29N 45°33' E 013°44'0 0.0
2017-Nov-23 10:53N 45°33' E 013°44'0 0.0
2017-Nov-23 10:26N 45°33' E 013°44'0 0.0
2017-Nov-23 09:41N 45°33' E 013°44'0 0.0
2017-Nov-23 09:29N 45°33' E 013°44'0 0.0
2017-Nov-23 08:41N 45°33' E 013°44'0 0.0
2017-Nov-23 08:26N 45°33' E 013°44'0 0.0
2017-Nov-23 07:59N 45°33' E 013°44'0 0.0
2017-Nov-23 07:26N 45°33' E 013°44'0 0.0
2017-Nov-23 06:41N 45°33' E 013°44'0 0.0
2017-Nov-23 06:29N 45°33' E 013°44'0 0.0
2017-Nov-23 05:56N 45°33' E 013°44'0 0.0
2017-Nov-23 05:14N 45°33' E 013°44'0 0.0
2017-Nov-23 05:00N 45°33' E 013°44'2 4.3
2017-Nov-23 04:30N 45°34' E 013°41'2 3.7
2017-Nov-23 04:00N 45°35' E 013°38'2 4.5
2017-Nov-23 03:30N 45°35' E 013°35'4 8.8
2017-Nov-23 03:00N 45°34' E 013°29'612.3
2017-Nov-23 02:30N 45°31' E 013°22'612.4
2017-Nov-23 02:00N 45°27' E 013°15'612.1
2017-Nov-23 01:30N 45°21' E 013°11'612.6
2017-Nov-23 01:00N 45°15' E 013°11'612.4
2017-Nov-23 00:30N 45°09' E 013°14'612.5
2017-Nov-23 00:00N 45°04' E 013°18'612.9
2017-Nov-22 23:30N 44°58' E 013°22'612.7
2017-Nov-22 23:00N 44°53' E 013°27'713.1
2017-Nov-22 22:30N 44°47' E 013°32'713.4
2017-Nov-22 22:00N 44°41' E 013°36'713.4
2017-Nov-22 21:30N 44°37' E 013°44'613.0
2017-Nov-22 21:00N 44°39' E 013°52'713.5
2017-Nov-22 20:30N 44°43' E 013°59'713.9
2017-Nov-22 20:00N 44°49' E 014°05'813.8
2017-Nov-22 19:24N 44°56' E 014°11'  
2017-Nov-19 08:56N 37°13' E 023°42'1911.9
2017-Nov-19 07:21N 37°31' E 023°46'411.9
2017-Nov-19 06:59N 37°35' E 023°45'611.9
2017-Nov-19 06:30N 37°41' E 023°42'611.9
2017-Nov-19 06:00N 37°46' E 023°39'611.7
2017-Nov-19 05:30N 37°52' E 023°36'510.1
2017-Nov-19 05:00N 37°57' E 023°36'1 2.3
2017-Nov-19 04:30N 37°57' E 023°35'0 0.0
2017-Nov-19 04:00N 37°57' E 023°35'0 0.0
2017-Nov-19 03:30N 37°57' E 023°35'0 0.0
2017-Nov-19 03:00N 37°57' E 023°35'0 0.0
2017-Nov-19 02:27N 37°57' E 023°35'0 0.0
2017-Nov-19 02:00N 37°57' E 023°35'0 0.0
2017-Nov-19 01:30N 37°57' E 023°35'0 0.0
2017-Nov-19 01:00N 37°57' E 023°35'0 0.0
2017-Nov-19 00:30N 37°57' E 023°35'0 0.0
2017-Nov-19 00:00N 37°57' E 023°35'0 0.0
2017-Nov-18 23:30N 37°57' E 023°35'0 0.0
2017-Nov-18 23:00N 37°57' E 023°35'0 0.0
2017-Nov-18 22:30N 37°57' E 023°35'0 0.0
2017-Nov-18 22:00N 37°57' E 023°35'0 0.0
2017-Nov-18 21:30N 37°57' E 023°35'0 0.0
2017-Nov-18 21:00N 37°57' E 023°35'0 0.0
2017-Nov-18 20:30N 37°57' E 023°35'0 0.0
2017-Nov-18 20:00N 37°57' E 023°35'0 0.0
2017-Nov-18 19:30N 37°57' E 023°35'0 0.0
2017-Nov-18 19:00N 37°57' E 023°35'0 0.0
2017-Nov-18 18:30N 37°57' E 023°35'0 0.0
2017-Nov-18 18:00N 37°57' E 023°35'0 0.0
2017-Nov-18 17:30N 37°57' E 023°35'0 0.0
2017-Nov-18 17:00N 37°57' E 023°35'0 0.0
2017-Nov-18 16:30N 37°57' E 023°35'0 0.0
2017-Nov-18 16:00N 37°57' E 023°35'0 0.0
2017-Nov-18 15:30N 37°57' E 023°35'0 0.0
2017-Nov-18 15:00N 37°57' E 023°35'0 0.0
2017-Nov-18 14:30N 37°57' E 023°35'0 0.0
2017-Nov-18 14:00N 37°57' E 023°35'0 0.0
2017-Nov-18 13:30N 37°57' E 023°35'0 0.0
2017-Nov-18 13:00N 37°57' E 023°35'0 0.0
2017-Nov-18 12:30N 37°57' E 023°35'0 0.0
2017-Nov-18 12:00N 37°57' E 023°35'0 0.0
2017-Nov-18 11:30N 37°57' E 023°35'0 0.0
2017-Nov-18 10:54N 37°57' E 023°35'0 0.0
2017-Nov-18 10:30N 37°57' E 023°35'0 0.0
2017-Nov-18 10:00N 37°57' E 023°35'0 0.0
2017-Nov-18 09:30N 37°57' E 023°35'0 0.0
2017-Nov-18 09:00N 37°57' E 023°35'0 0.0
2017-Nov-18 08:30N 37°57' E 023°35'0 0.0
2017-Nov-18 08:00N 37°57' E 023°35'0 0.0
2017-Nov-18 07:30N 37°57' E 023°35'0 0.0
2017-Nov-18 07:00N 37°57' E 023°35'0 0.0
2017-Nov-18 06:30N 37°57' E 023°35'0 0.6
2017-Nov-18 06:01N 37°57' E 023°35'3 5.4
2017-Nov-18 05:31N 37°54' E 023°35'1 2.3
2017-Nov-18 05:01N 37°53' E 023°36'0 0.6
2017-Nov-18 04:30N 37°53' E 023°36'0 0.3
2017-Nov-18 04:01N 37°53' E 023°36'2 5.0
2017-Nov-18 03:31N 37°51' E 023°39'4 8.0
2017-Nov-18 03:00N 37°48' E 023°41'612.2
2017-Nov-18 02:31N 37°42' E 023°44'712.1
2017-Nov-18 01:58N 37°37' E 023°49'612.6
2017-Nov-18 01:30N 37°37' E 023°57'119 2.7
2017-Nov-16 05:02N 39°35' E 024°15'113.4
2017-Nov-16 04:57N 39°36' E 024°14'713.3
2017-Nov-16 04:28N 39°38' E 024°06'  
Track history (hours):
 
Tides and Currents Weather Stations Pressure Air Temp Water Temp Dewpoint Dewpoint Depression Visibility Wind Speed Wind Dir Waves Ship Positions

Nordviolet

Last reported at 2017-Nov-24 09:00 UTC. Time now 2017-Nov-24 09:20 UTC.
Position N 45°27' E 012°14'.

Length 170 m; draft 8 m.

Type: Ship (hazmat cat A). MMSI: 249094000.

Date/timePositionNaut miles runAvg speedWind from/ knotsBaromVisibWave heightAir tempDewpointWater temp
2017-Nov-24 09:00N 45°27' E 012°14'0 0.0
2017-Nov-24 08:30N 45°27' E 012°14'0 0.0
2017-Nov-24 08:00N 45°27' E 012°14'0 0.0
2017-Nov-24 07:27N 45°27' E 012°14'0 0.0
2017-Nov-24 06:57N 45°27' E 012°14'1 1.7
2017-Nov-24 06:30N 45°27' E 012°15'2 4.7
2017-Nov-24 06:00N 45°25' E 012°16'4 8.1
2017-Nov-24 05:30N 45°21' E 012°17'5 9.7
2017-Nov-24 05:01N 45°19' E 012°24'4 7.5
2017-Nov-24 04:31N 45°21' E 012°28'0 0.1
2017-Nov-24 04:00N 45°21' E 012°28'0 0.0
2017-Nov-24 03:30N 45°21' E 012°28'0 0.0
2017-Nov-24 03:00N 45°21' E 012°28'0 0.0
2017-Nov-24 02:30N 45°21' E 012°28'0 0.0
2017-Nov-24 02:00N 45°21' E 012°28'0 0.0
2017-Nov-24 01:30N 45°21' E 012°28'0 0.0
2017-Nov-24 01:00N 45°21' E 012°28'0 0.0
2017-Nov-24 00:30N 45°21' E 012°28'0 0.0
2017-Nov-24 00:00N 45°21' E 012°28'0 0.0
2017-Nov-23 23:30N 45°21' E 012°28'0 0.0
2017-Nov-23 23:00N 45°21' E 012°28'0 0.0
2017-Nov-23 22:30N 45°21' E 012°28'0 0.0
2017-Nov-23 22:00N 45°21' E 012°28'0 0.1
2017-Nov-23 21:30N 45°21' E 012°28'0 0.3
2017-Nov-23 21:00N 45°21' E 012°28'1 2.8
2017-Nov-23 20:30N 45°20' E 012°26'4 8.5
2017-Nov-23 20:00N 45°17' E 012°30'510.8
2017-Nov-23 19:30N 45°17' E 012°38'612.0
2017-Nov-23 19:00N 45°20' E 012°46'611.9
2017-Nov-23 18:30N 45°23' E 012°53'611.7
2017-Nov-23 18:00N 45°26' E 013°00'611.8
2017-Nov-23 17:30N 45°30' E 013°07'611.8
2017-Nov-23 17:00N 45°32' E 013°14'612.1
2017-Nov-23 16:30N 45°35' E 013°22'612.1
2017-Nov-23 16:00N 45°37' E 013°30'611.1
2017-Nov-23 15:30N 45°37' E 013°38'5 9.7
2017-Nov-23 15:00N 45°33' E 013°43'1 0.9
2017-Nov-23 14:21N 45°33' E 013°44'0 0.0
2017-Nov-23 13:57N 45°33' E 013°44'0 0.0
2017-Nov-23 13:23N 45°33' E 013°44'0 0.0
2017-Nov-23 12:59N 45°33' E 013°44'0 0.0
2017-Nov-23 12:23N 45°33' E 013°44'0 0.0
2017-Nov-23 11:59N 45°33' E 013°44'0 0.0
2017-Nov-23 11:29N 45°33' E 013°44'0 0.0
2017-Nov-23 10:53N 45°33' E 013°44'0 0.0
2017-Nov-23 10:26N 45°33' E 013°44'0 0.0
2017-Nov-23 09:41N 45°33' E 013°44'0 0.0
2017-Nov-23 09:29N 45°33' E 013°44'0 0.0
2017-Nov-23 08:41N 45°33' E 013°44'0 0.0
2017-Nov-23 08:26N 45°33' E 013°44'0 0.0
2017-Nov-23 07:59N 45°33' E 013°44'0 0.0
2017-Nov-23 07:26N 45°33' E 013°44'0 0.0
2017-Nov-23 06:41N 45°33' E 013°44'0 0.0
2017-Nov-23 06:29N 45°33' E 013°44'0 0.0
2017-Nov-23 05:56N 45°33' E 013°44'0 0.0
2017-Nov-23 05:14N 45°33' E 013°44'0 0.0
2017-Nov-23 05:00N 45°33' E 013°44'2 4.3
2017-Nov-23 04:30N 45°34' E 013°41'2 3.7
2017-Nov-23 04:00N 45°35' E 013°38'2 4.5
2017-Nov-23 03:30N 45°35' E 013°35'4 8.8
2017-Nov-23 03:00N 45°34' E 013°29'612.3
2017-Nov-23 02:30N 45°31' E 013°22'612.4
2017-Nov-23 02:00N 45°27' E 013°15'612.1
2017-Nov-23 01:30N 45°21' E 013°11'612.6
2017-Nov-23 01:00N 45°15' E 013°11'612.4
2017-Nov-23 00:30N 45°09' E 013°14'612.5
2017-Nov-23 00:00N 45°04' E 013°18'612.9
2017-Nov-22 23:30N 44°58' E 013°22'612.7
2017-Nov-22 23:00N 44°53' E 013°27'713.1
2017-Nov-22 22:30N 44°47' E 013°32'713.4
2017-Nov-22 22:00N 44°41' E 013°36'713.4
2017-Nov-22 21:30N 44°37' E 013°44'613.0
2017-Nov-22 21:00N 44°39' E 013°52'713.5
2017-Nov-22 20:30N 44°43' E 013°59'713.9
2017-Nov-22 20:00N 44°49' E 014°05'813.8
2017-Nov-22 19:24N 44°56' E 014°11'  
2017-Nov-19 08:56N 37°13' E 023°42'1911.9
2017-Nov-19 07:21N 37°31' E 023°46'411.9
2017-Nov-19 06:59N 37°35' E 023°45'611.9
2017-Nov-19 06:30N 37°41' E 023°42'611.9
2017-Nov-19 06:00N 37°46' E 023°39'611.7
2017-Nov-19 05:30N 37°52' E 023°36'510.1
2017-Nov-19 05:00N 37°57' E 023°36'1 2.3
2017-Nov-19 04:30N 37°57' E 023°35'0 0.0
2017-Nov-19 04:00N 37°57' E 023°35'0 0.0
2017-Nov-19 03:30N 37°57' E 023°35'0 0.0
2017-Nov-19 03:00N 37°57' E 023°35'0 0.0
2017-Nov-19 02:27N 37°57' E 023°35'0 0.0
2017-Nov-19 02:00N 37°57' E 023°35'0 0.0
2017-Nov-19 01:30N 37°57' E 023°35'0 0.0
2017-Nov-19 01:00N 37°57' E 023°35'0 0.0
2017-Nov-19 00:30N 37°57' E 023°35'0 0.0
2017-Nov-19 00:00N 37°57' E 023°35'0 0.0
2017-Nov-18 23:30N 37°57' E 023°35'0 0.0
2017-Nov-18 23:00N 37°57' E 023°35'0 0.0
2017-Nov-18 22:30N 37°57' E 023°35'0 0.0
2017-Nov-18 22:00N 37°57' E 023°35'0 0.0
2017-Nov-18 21:30N 37°57' E 023°35'0 0.0
2017-Nov-18 21:00N 37°57' E 023°35'0 0.0
2017-Nov-18 20:30N 37°57' E 023°35'0 0.0
2017-Nov-18 20:00N 37°57' E 023°35'0 0.0
2017-Nov-18 19:30N 37°57' E 023°35'0 0.0
2017-Nov-18 19:00N 37°57' E 023°35'0 0.0
2017-Nov-18 18:30N 37°57' E 023°35'0 0.0
2017-Nov-18 18:00N 37°57' E 023°35'0 0.0
2017-Nov-18 17:30N 37°57' E 023°35'0 0.0
2017-Nov-18 17:00N 37°57' E 023°35'0 0.0
2017-Nov-18 16:30N 37°57' E 023°35'0 0.0
2017-Nov-18 16:00N 37°57' E 023°35'0 0.0
2017-Nov-18 15:30N 37°57' E 023°35'0 0.0
2017-Nov-18 15:00N 37°57' E 023°35'0 0.0
2017-Nov-18 14:30N 37°57' E 023°35'0 0.0
2017-Nov-18 14:00N 37°57' E 023°35'0 0.0
2017-Nov-18 13:30N 37°57' E 023°35'0 0.0
2017-Nov-18 13:00N 37°57' E 023°35'0 0.0
2017-Nov-18 12:30N 37°57' E 023°35'0 0.0
2017-Nov-18 12:00N 37°57' E 023°35'0 0.0
2017-Nov-18 11:30N 37°57' E 023°35'0 0.0
2017-Nov-18 10:54N 37°57' E 023°35'0 0.0
2017-Nov-18 10:30N 37°57' E 023°35'0 0.0
2017-Nov-18 10:00N 37°57' E 023°35'0 0.0
2017-Nov-18 09:30N 37°57' E 023°35'0 0.0
2017-Nov-18 09:00N 37°57' E 023°35'0 0.0
2017-Nov-18 08:30N 37°57' E 023°35'0 0.0
2017-Nov-18 08:00N 37°57' E 023°35'0 0.0
2017-Nov-18 07:30N 37°57' E 023°35'0 0.0
2017-Nov-18 07:00N 37°57' E 023°35'0 0.0
2017-Nov-18 06:30N 37°57' E 023°35'0 0.6
2017-Nov-18 06:01N 37°57' E 023°35'3 5.4
2017-Nov-18 05:31N 37°54' E 023°35'1 2.3
2017-Nov-18 05:01N 37°53' E 023°36'0 0.6
2017-Nov-18 04:30N 37°53' E 023°36'0 0.3
2017-Nov-18 04:01N 37°53' E 023°36'2 5.0
2017-Nov-18 03:31N 37°51' E 023°39'4 8.0
2017-Nov-18 03:00N 37°48' E 023°41'612.2
2017-Nov-18 02:31N 37°42' E 023°44'712.1
2017-Nov-18 01:58N 37°37' E 023°49'612.6
2017-Nov-18 01:30N 37°37' E 023°57'119 2.7
2017-Nov-16 05:02N 39°35' E 024°15'113.4
2017-Nov-16 04:57N 39°36' E 024°14'713.3
2017-Nov-16 04:28N 39°38' E 024°06'  

Dump ship's entire track history